Time;durP1;ratioP1;P1;durP2;ratioP2;P2;SDS_P1;SDS_P2;PMS_P1;PMS_P2;Temp;Humidity;BMP_temperature;BMP_pressure;BME280_temperature;BME280_humidity;BME280_pressure;Samples;Min_cycle;Max_cycle;Signal;HPM_P1;HPM_P2
2022/05/13 00:01:07;;;;;;;6.70;2.90;;;;;;;;;;5110563;28;20031;-75
2022/05/13 00:03:34;;;;;;;7.37;2.60;;;;;;;;;;5110761;28;20493;-75
2022/05/13 00:06:01;;;;;;;4.47;2.23;;;;;;;;;;5113211;28;20066;-76
2022/05/13 00:08:28;;;;;;;4.00;2.07;;;;;;;;;;5116075;28;20028;-74
2022/05/13 00:10:55;;;;;;;6.17;2.50;;;;;;;;;;5116140;28;20386;-75
2022/05/13 00:13:22;;;;;;;4.33;2.20;;;;;;;;;;5115743;28;20030;-75
2022/05/13 00:15:49;;;;;;;5.07;2.53;;;;;;;;;;5116172;28;20470;-75
2022/05/13 00:18:16;;;;;;;7.23;2.67;;;;;;;;;;5112872;28;20024;-77
2022/05/13 00:20:43;;;;;;;8.40;2.43;;;;;;;;;;5110936;28;20478;-75
2022/05/13 00:23:10;;;;;;;5.13;2.50;;;;;;;;;;5110349;28;20526;-75
2022/05/13 00:25:38;;;;;;;6.00;2.40;;;;;;;;;;5110292;28;20032;-76
2022/05/13 00:28:05;;;;;;;7.23;2.53;;;;;;;;;;5111992;28;20039;-75
2022/05/13 00:30:33;;;;;;;5.43;2.80;;;;;;;;;;5115282;28;20027;-75
2022/05/13 00:33:00;;;;;;;4.87;3.00;;;;;;;;;;5115563;28;20020;-75
2022/05/13 00:35:28;;;;;;;7.33;2.80;;;;;;;;;;5114574;28;20030;-75
2022/05/13 00:37:54;;;;;;;6.13;2.53;;;;;;;;;;5115429;28;20070;-75
2022/05/13 00:40:22;;;;;;;5.03;2.80;;;;;;;;;;5113370;28;20023;-74
2022/05/13 00:42:49;;;;;;;5.97;2.50;;;;;;;;;;5110060;28;20039;-75
2022/05/13 00:45:17;;;;;;;9.07;2.37;;;;;;;;;;5109980;28;20078;-75
2022/05/13 00:47:45;;;;;;;6.60;3.03;;;;;;;;;;5109953;28;20106;-73
2022/05/13 00:50:13;;;;;;;7.47;2.67;;;;;;;;;;5111166;28;20024;-75
2022/05/13 00:52:42;;;;;;;5.70;2.63;;;;;;;;;;5114517;28;20061;-75
2022/05/13 00:55:16;;;;;;;20.57;3.73;;;;;;;;;;5115437;28;20055;-76
2022/05/13 00:57:42;;;;;;;7.40;2.92;;;;;;;;;;5115023;28;20567;-75
2022/05/13 01:00:12;;;;;;;8.33;3.17;;;;;;;;;;5114949;28;20494;-75
2022/05/13 01:02:43;;;;;;;7.20;3.07;;;;;;;;;;5113049;28;20111;-75
2022/05/13 01:05:10;;;;;;;4.77;2.67;;;;;;;;;;5109501;28;20019;-78
2022/05/13 01:07:37;;;;;;;5.80;2.67;;;;;;;;;;5109933;28;20107;-75
2022/05/13 01:10:05;;;;;;;6.97;2.87;;;;;;;;;;5109582;28;20774;-75
2022/05/13 01:12:37;;;;;;;5.77;2.63;;;;;;;;;;5110715;28;20420;-75
2022/05/13 01:15:07;;;;;;;9.23;2.97;;;;;;;;;;5114092;28;20026;-75
2022/05/13 01:20:22;;;;;;;4.70;2.47;;;;;;;;;;5115064;28;20088;-75
2022/05/13 01:22:51;;;;;;;5.20;2.60;;;;;;;;;;5114442;28;20040;-75
2022/05/13 01:25:24;;;;;;;14.13;4.73;;;;;;;;;;5111846;28;20415;-76
2022/05/13 01:27:51;;;;;;;6.67;2.77;;;;;;;;;;5109195;28;20381;-75
2022/05/13 01:30:23;;;;;;;9.20;2.60;;;;;;;;;;5108979;28;20035;-77
2022/05/13 01:32:50;;;;;;;5.43;2.60;;;;;;;;;;5109029;28;20046;-75
2022/05/13 01:35:17;;;;;;;7.13;3.10;;;;;;;;;;5111434;28;20481;-75
2022/05/13 01:37:44;;;;;;;6.77;3.43;;;;;;;;;;5114328;28;20028;-76
2022/05/13 01:40:11;;;;;;;6.53;3.33;;;;;;;;;;5114163;28;20019;-75
2022/05/13 01:42:38;;;;;;;8.83;3.30;;;;;;;;;;5113941;28;20028;-75
2022/05/13 01:45:07;;;;;;;7.23;2.93;;;;;;;;;;5113681;28;20485;-75
2022/05/13 01:47:34;;;;;;;8.13;2.80;;;;;;;;;;5111759;28;20112;-75
2022/05/13 01:50:01;;;;;;;9.63;3.30;;;;;;;;;;5109384;28;20438;-75
2022/05/13 01:52:28;;;;;;;7.67;3.30;;;;;;;;;;5108694;28;20031;-75
2022/05/13 01:54:55;;;;;;;5.10;2.93;;;;;;;;;;5108514;28;20055;-75
2022/05/13 01:57:21;;;;;;;11.50;4.03;;;;;;;;;;5109975;28;20023;-75
2022/05/13 01:59:48;;;;;;;6.63;3.40;;;;;;;;;;5113690;28;20055;-75
2022/05/13 02:02:15;;;;;;;7.03;3.87;;;;;;;;;;5113048;28;20076;-77
2022/05/13 02:04:41;;;;;;;8.47;3.70;;;;;;;;;;5113550;28;20102;-75
2022/05/13 02:07:08;;;;;;;5.23;2.90;;;;;;;;;;5113852;28;20027;-75
2022/05/13 02:09:35;;;;;;;7.07;3.07;;;;;;;;;;5112204;28;20157;-74
2022/05/13 02:12:01;;;;;;;8.33;3.40;;;;;;;;;;5108318;28;20106;-75
2022/05/13 02:14:28;;;;;;;7.63;3.33;;;;;;;;;;5108553;28;20505;-76
2022/05/13 02:16:55;;;;;;;7.13;3.17;;;;;;;;;;5108210;28;20032;-75
2022/05/13 02:19:21;;;;;;;7.63;3.30;;;;;;;;;;5108773;28;20089;-77
2022/05/13 02:21:48;;;;;;;7.50;3.20;;;;;;;;;;5113482;28;20142;-75
2022/05/13 02:24:15;;;;;;;6.37;3.23;;;;;;;;;;5113783;28;20464;-75
2022/05/13 02:26:42;;;;;;;4.30;3.20;;;;;;;;;;5113133;28;20374;-75
2022/05/13 02:29:08;;;;;;;7.57;3.33;;;;;;;;;;5113272;28;20106;-75
2022/05/13 02:31:35;;;;;;;6.17;2.83;;;;;;;;;;5112010;28;20119;-75
2022/05/13 02:34:02;;;;;;;7.33;3.13;;;;;;;;;;5108351;28;20359;-75
2022/05/13 02:36:29;;;;;;;7.60;2.90;;;;;;;;;;5107409;28;20024;-78
2022/05/13 02:38:55;;;;;;;13.83;2.87;;;;;;;;;;5108303;28;20474;-75
2022/05/13 02:41:22;;;;;;;11.03;3.20;;;;;;;;;;5108074;28;20541;-74
2022/05/13 02:43:50;;;;;;;5.23;2.37;;;;;;;;;;5112931;28;20031;-75
2022/05/13 02:46:21;;;;;;;4.30;2.40;;;;;;;;;;5112712;28;20031;-75
2022/05/13 02:48:48;;;;;;;5.87;2.70;;;;;;;;;;5112743;28;20027;-75
2022/05/13 02:51:15;;;;;;;6.70;2.73;;;;;;;;;;5112752;28;20039;-75
2022/05/13 02:53:42;;;;;;;8.13;3.03;;;;;;;;;;5111754;28;20027;-74
2022/05/13 02:56:09;;;;;;;4.20;2.47;;;;;;;;;;5107848;28;20024;-76
2022/05/13 02:58:36;;;;;;;7.20;2.63;;;;;;;;;;5108215;28;20031;-75
2022/05/13 03:01:03;;;;;;;4.97;2.67;;;;;;;;;;5107380;28;20027;-75
2022/05/13 03:03:30;;;;;;;6.50;2.27;;;;;;;;;;5107519;28;20031;-75
2022/05/13 03:05:59;;;;;;;5.43;2.60;;;;;;;;;;5112484;28;20438;-75
2022/05/13 03:08:26;;;;;;;5.67;2.20;;;;;;;;;;5112605;28;20440;-77
2022/05/13 03:10:53;;;;;;;5.43;2.70;;;;;;;;;;5112541;28;20019;-76
2022/05/13 03:13:20;;;;;;;7.00;2.90;;;;;;;;;;5112529;28;20081;-75
2022/05/13 03:15:48;;;;;;;7.20;2.90;;;;;;;;;;5112679;28;20011;-75
2022/05/13 03:18:14;;;;;;;5.57;2.30;;;;;;;;;;5106907;28;20028;-75
2022/05/13 03:20:42;;;;;;;6.37;3.17;;;;;;;;;;5107382;28;20394;-76
2022/05/13 03:23:09;;;;;;;5.67;2.83;;;;;;;;;;5107694;28;20024;-75
2022/05/13 03:25:35;;;;;;;10.00;3.10;;;;;;;;;;5107521;28;20466;-78
2022/05/13 03:28:02;;;;;;;8.57;3.30;;;;;;;;;;5111579;28;20024;-76
2022/05/13 03:30:29;;;;;;;11.40;3.47;;;;;;;;;;5112598;28;20104;-75
2022/05/13 03:32:55;;;;;;;9.97;3.80;;;;;;;;;;5112455;28;20046;-75
2022/05/13 03:35:23;;;;;;;8.17;3.50;;;;;;;;;;5112385;28;20035;-75
2022/05/13 03:37:50;;;;;;;12.53;3.67;;;;;;;;;;5112484;28;20023;-75
2022/05/13 03:40:18;;;;;;;9.67;3.07;;;;;;;;;;5107609;28;20024;-75
2022/05/13 03:42:44;;;;;;;6.17;2.60;;;;;;;;;;5106735;28;20488;-76
2022/05/13 03:45:12;;;;;;;7.33;3.00;;;;;;;;;;5107362;28;20034;-75
2022/05/13 03:47:40;;;;;;;5.57;2.50;;;;;;;;;;5107063;28;20742;-75
2022/05/13 03:50:07;;;;;;;6.33;2.47;;;;;;;;;;5111017;28;20088;-75
2022/05/13 03:52:34;;;;;;;6.50;3.20;;;;;;;;;;5112352;28;20539;-75
2022/05/13 03:55:01;;;;;;;9.10;2.93;;;;;;;;;;5112042;28;20482;-75
2022/05/13 03:57:27;;;;;;;8.37;3.20;;;;;;;;;;5112400;28;20097;-75
2022/05/13 03:59:54;;;;;;;7.67;3.03;;;;;;;;;;5111717;28;20028;-75
2022/05/13 04:02:21;;;;;;;6.27;2.80;;;;;;;;;;5106965;28;20046;-75
2022/05/13 04:10:18;;;;;;;9.20;3.30;;;;;;;;;;5107346;28;20110;-75
2022/05/13 04:18:15;;;;;;;8.30;3.60;;;;;;;;;;5111480;28;20038;-75
2022/05/13 04:20:42;;;;;;;6.33;2.93;;;;;;;;;;5115505;28;20377;-75
2022/05/13 04:23:08;;;;;;;7.57;3.43;;;;;;;;;;5114627;28;20027;-75
2022/05/13 04:25:35;;;;;;;5.77;3.33;;;;;;;;;;5110841;28;20481;-75
2022/05/13 04:28:02;;;;;;;7.07;3.50;;;;;;;;;;5110230;28;20098;-75
2022/05/13 04:30:28;;;;;;;5.80;3.03;;;;;;;;;;5111037;28;20032;-75
2022/05/13 04:32:55;;;;;;;8.97;3.23;;;;;;;;;;5110782;28;20036;-75
2022/05/13 04:35:22;;;;;;;6.37;2.50;;;;;;;;;;5114549;28;20020;-75
2022/05/13 04:37:48;;;;;;;5.90;3.17;;;;;;;;;;5115447;28;20019;-75
2022/05/13 04:40:15;;;;;;;5.27;2.50;;;;;;;;;;5115043;28;20035;-74
2022/05/13 04:42:51;;;;;;;8.63;3.13;;;;;;;;;;5114828;28;20377;-75
2022/05/13 04:45:24;;;;;;;7.17;3.20;;;;;;;;;;5114543;28;20027;-75
2022/05/13 04:50:39;;;;;;;5.23;3.43;;;;;;;;;;5110113;28;20066;-75
2022/05/13 04:53:07;;;;;;;6.30;3.17;;;;;;;;;;5110003;28;20040;-75
2022/05/13 04:55:34;;;;;;;6.87;2.77;;;;;;;;;;5110811;28;20024;-75
2022/05/13 04:58:01;;;;;;;13.20;3.37;;;;;;;;;;5114927;28;20027;-74
2022/05/13 05:00:28;;;;;;;5.63;2.83;;;;;;;;;;5114526;28;20428;-74
2022/05/13 05:02:54;;;;;;;8.33;2.87;;;;;;;;;;5114866;28;20027;-74
2022/05/13 05:05:21;;;;;;;6.83;3.50;;;;;;;;;;5114970;28;20049;-71
2022/05/13 05:07:48;;;;;;;7.43;2.80;;;;;;;;;;5096775;28;20026;-74
2022/05/13 05:10:15;;;;;;;6.93;2.87;;;;;;;;;;5109382;28;20521;-72
2022/05/13 05:12:42;;;;;;;6.53;2.90;;;;;;;;;;5109776;28;20503;-71
2022/05/13 05:15:09;;;;;;;9.60;3.53;;;;;;;;;;5109462;28;20027;-73
2022/05/13 05:17:35;;;;;;;5.83;2.93;;;;;;;;;;5109909;28;20042;-67
2022/05/13 05:20:02;;;;;;;7.97;3.83;;;;;;;;;;5114896;28;20099;-72
2022/05/13 05:22:29;;;;;;;6.97;3.73;;;;;;;;;;5114283;28;20019;-72
2022/05/13 05:25:33;;;;;;;5.63;3.13;;;;;;;;;;5114775;28;20119;-71
2022/05/13 05:28:00;;;;;;;5.93;2.97;;;;;;;;;;5110199;28;20034;-71
2022/05/13 05:30:27;;;;;;;6.47;2.87;;;;;;;;;;5112183;28;20028;-71
2022/05/13 05:32:54;;;;;;;4.83;2.67;;;;;;;;;;5108829;28;20071;-71
2022/05/13 05:35:22;;;;;;;8.83;3.00;;;;;;;;;;5108784;28;20102;-71
2022/05/13 05:37:49;;;;;;;6.00;2.93;;;;;;;;;;5109015;28;20024;-71
2022/05/13 05:40:16;;;;;;;8.47;3.70;;;;;;;;;;5110672;28;20416;-71
2022/05/13 05:42:43;;;;;;;7.60;3.17;;;;;;;;;;5113925;28;20031;-71
2022/05/13 05:45:14;;;;;;;5.50;3.00;;;;;;;;;;5113735;28;20158;-71
2022/05/13 05:47:41;;;;;;;6.00;3.90;;;;;;;;;;5113595;28;20443;-71
2022/05/13 05:50:10;;;;;;;9.30;3.60;;;;;;;;;;5113399;28;20031;-71
2022/05/13 05:52:36;;;;;;;4.60;2.60;;;;;;;;;;5096697;28;20061;-71
2022/05/13 05:57:59;;;;;;;5.20;2.97;;;;;;;;;;5108271;28;20504;-71
2022/05/13 06:00:26;;;;;;;7.30;3.07;;;;;;;;;;5108275;28;20073;-71
2022/05/13 06:02:54;;;;;;;7.23;3.40;;;;;;;;;;5110527;28;20026;-71
2022/05/13 06:05:21;;;;;;;6.60;2.83;;;;;;;;;;5113767;28;20028;-71
2022/05/13 06:07:49;;;;;;;4.90;3.10;;;;;;;;;;5112774;28;20039;-72
2022/05/13 06:10:15;;;;;;;7.30;3.10;;;;;;;;;;5113410;28;20023;-71
2022/05/13 06:12:42;;;;;;;6.63;3.33;;;;;;;;;;5113445;28;20046;-71
2022/05/13 06:15:09;;;;;;;7.40;3.63;;;;;;;;;;5110984;28;20027;-71
2022/05/13 06:17:36;;;;;;;7.50;3.13;;;;;;;;;;5108184;28;20047;-71
2022/05/13 06:20:04;;;;;;;5.07;3.07;;;;;;;;;;5107498;28;20115;-71
2022/05/13 06:22:31;;;;;;;7.07;3.10;;;;;;;;;;5091452;28;20035;-72
2022/05/13 06:24:57;;;;;;;9.47;3.47;;;;;;;;;;5109584;28;20077;-71
2022/05/13 06:27:24;;;;;;;5.50;3.10;;;;;;;;;;5113307;28;20024;-71
2022/05/13 06:29:53;;;;;;;6.23;2.83;;;;;;;;;;5113013;28;20408;-71
2022/05/13 06:32:20;;;;;;;4.93;3.13;;;;;;;;;;5113038;28;20031;-71
2022/05/13 06:34:46;;;;;;;7.50;3.20;;;;;;;;;;5113082;28;20028;-71
2022/05/13 06:37:13;;;;;;;7.17;3.63;;;;;;;;;;5110540;28;20474;-71
2022/05/13 06:39:40;;;;;;;6.70;3.27;;;;;;;;;;5107259;28;20394;-72
2022/05/13 06:42:06;;;;;;;10.70;3.10;;;;;;;;;;5107195;28;20024;-71
2022/05/13 06:44:33;;;;;;;9.10;4.33;;;;;;;;;;5107623;28;20028;-72
2022/05/13 06:47:00;;;;;;;9.23;5.23;;;;;;;;;;5108866;28;20020;-71
2022/05/13 06:49:26;;;;;;;9.33;4.07;;;;;;;;;;5112804;28;20020;-71
2022/05/13 06:51:53;;;;;;;9.53;4.30;;;;;;;;;;5112447;28;20036;-71
2022/05/13 06:54:20;;;;;;;6.23;3.47;;;;;;;;;;5112565;28;20016;-71
2022/05/13 06:56:48;;;;;;;5.60;3.50;;;;;;;;;;5112130;28;20028;-71
2022/05/13 06:59:15;;;;;;;6.00;3.20;;;;;;;;;;5110765;28;20066;-71
2022/05/13 07:01:41;;;;;;;13.27;3.43;;;;;;;;;;5107315;28;20533;-71
2022/05/13 07:04:08;;;;;;;6.60;3.03;;;;;;;;;;5107492;28;20031;-71
2022/05/13 07:06:35;;;;;;;4.67;2.90;;;;;;;;;;5107368;28;20023;-71
2022/05/13 07:09:01;;;;;;;4.37;2.90;;;;;;;;;;5108063;28;20038;-71
2022/05/13 07:11:28;;;;;;;7.90;3.10;;;;;;;;;;5112309;28;20441;-71
2022/05/13 07:13:55;;;;;;;7.47;2.90;;;;;;;;;;5112375;28;20028;-71
2022/05/13 07:16:22;;;;;;;4.63;2.80;;;;;;;;;;5112411;28;20043;-71
2022/05/13 07:18:49;;;;;;;4.40;2.87;;;;;;;;;;5112389;28;20031;-71
2022/05/13 07:21:16;;;;;;;9.73;3.83;;;;;;;;;;5111354;28;20035;-71
2022/05/13 07:23:43;;;;;;;7.07;3.13;;;;;;;;;;5106896;28;20089;-71
2022/05/13 07:26:11;;;;;;;7.67;2.73;;;;;;;;;;5106895;28;20099;-71
2022/05/13 07:28:41;;;;;;;7.03;3.27;;;;;;;;;;5106252;28;20028;-71
2022/05/13 07:31:08;;;;;;;7.63;3.13;;;;;;;;;;5107356;28;20040;-71
2022/05/13 07:33:35;;;;;;;7.07;3.13;;;;;;;;;;5112373;28;20034;-71
2022/05/13 07:36:02;;;;;;;7.83;3.63;;;;;;;;;;5112242;28;20020;-71
2022/05/13 07:38:30;;;;;;;4.90;3.20;;;;;;;;;;5111995;28;20397;-72
2022/05/13 07:43:43;;;;;;;9.57;3.77;;;;;;;;;;5110480;28;20062;-71
2022/05/13 07:46:10;;;;;;;6.10;3.80;;;;;;;;;;5107080;28;20419;-71
2022/05/13 07:48:38;;;;;;;9.80;4.20;;;;;;;;;;5107030;28;20051;-71
2022/05/13 07:51:05;;;;;;;10.93;3.53;;;;;;;;;;5106808;28;20434;-71
2022/05/13 07:53:32;;;;;;;6.70;3.33;;;;;;;;;;5108424;28;20027;-71
2022/05/13 07:55:59;;;;;;;4.37;2.70;;;;;;;;;;5115731;28;20055;-71
2022/05/13 07:58:25;;;;;;;6.33;2.60;;;;;;;;;;5116181;28;20031;-71
2022/05/13 08:00:54;;;;;;;7.10;3.57;;;;;;;;;;5115915;28;20028;-71
2022/05/13 08:03:22;;;;;;;6.43;3.83;;;;;;;;;;5099394;28;20423;-71
2022/05/13 08:05:50;;;;;;;7.03;3.70;;;;;;;;;;5114890;28;20099;-71
2022/05/13 08:08:19;;;;;;;7.93;3.47;;;;;;;;;;5110608;28;20072;-71
2022/05/13 08:10:48;;;;;;;6.83;3.03;;;;;;;;;;5109955;28;20030;-71
2022/05/13 08:13:15;;;;;;;7.10;3.37;;;;;;;;;;5110497;28;20096;-71
2022/05/13 08:15:42;;;;;;;7.27;3.37;;;;;;;;;;5111256;28;20473;-71
2022/05/13 08:18:09;;;;;;;7.73;4.00;;;;;;;;;;5115609;28;20023;-71
2022/05/13 08:20:36;;;;;;;5.50;3.17;;;;;;;;;;5115491;28;20509;-71
2022/05/13 08:23:04;;;;;;;6.17;3.27;;;;;;;;;;5115602;28;20024;-71
2022/05/13 08:25:31;;;;;;;6.60;3.73;;;;;;;;;;5114773;28;20034;-71
2022/05/13 08:27:57;;;;;;;10.17;3.53;;;;;;;;;;5114551;28;20024;-71
2022/05/13 08:30:24;;;;;;;5.77;3.33;;;;;;;;;;5110058;28;20031;-71
2022/05/13 08:32:52;;;;;;;7.43;4.23;;;;;;;;;;5109901;28;20113;-71
2022/05/13 08:35:20;;;;;;;8.27;3.80;;;;;;;;;;5109914;28;20062;-71
2022/05/13 08:37:49;;;;;;;6.63;4.23;;;;;;;;;;5110484;28;20054;-71
2022/05/13 08:40:36;;;;;;;9.00;4.07;;;;;;;;;;5114740;28;20024;-71
2022/05/13 08:43:10;;;;;;;5.33;3.20;;;;;;;;;;5063619;28;20034;-71
2022/05/13 08:45:40;;;;;;;10.87;4.03;;;;;;;;;;5115403;28;20024;-71
2022/05/13 08:48:08;;;;;;;6.03;2.93;;;;;;;;;;5114837;28;20289;-71
2022/05/13 08:50:41;;;;;;;7.40;3.00;;;;;;;;;;5092623;28;20028;-71
2022/05/13 08:53:26;;;;;;;7.37;2.70;;;;;;;;;;5107970;28;20675;-71
2022/05/13 08:56:02;;;;;;;6.68;2.92;;;;;;;;;;5109629;28;20019;-71
2022/05/13 08:58:34;;;;;;;5.90;2.80;;;;;;;;;;5109447;28;20035;-71
2022/05/13 09:01:02;;;;;;;4.63;2.70;;;;;;;;;;5112220;28;20073;-71
2022/05/13 09:03:32;;;;;;;4.63;2.73;;;;;;;;;;5114461;28;20062;-70
2022/05/13 09:06:18;;;;;;;5.13;3.03;;;;;;;;;;5114652;28;20581;-71
2022/05/13 09:08:45;;;;;;;5.47;3.33;;;;;;;;;;5114376;28;20276;-71
2022/05/13 09:11:12;;;;;;;4.57;2.60;;;;;;;;;;5114674;28;20493;-71
2022/05/13 09:13:45;;;;;;;4.10;2.70;;;;;;;;;;5110541;28;20092;-71
2022/05/13 09:16:11;;;;;;;7.53;3.57;;;;;;;;;;5109387;28;20275;-71
2022/05/13 09:18:42;;;;;;;5.50;2.50;;;;;;;;;;5109366;28;20055;-71
2022/05/13 09:21:20;;;;;;;7.23;3.10;;;;;;;;;;5109408;28;20306;-71
2022/05/13 09:23:47;;;;;;;5.40;3.43;;;;;;;;;;5112150;28;20299;-71
2022/05/13 09:26:15;;;;;;;5.47;2.40;;;;;;;;;;5114637;28;20311;-71
2022/05/13 09:29:00;;;;;;;5.00;2.60;;;;;;;;;;5114314;28;20077;-71
2022/05/13 09:31:30;;;;;;;4.45;2.55;;;;;;;;;;5113952;28;20420;-72
2022/05/13 09:33:57;;;;;;;4.70;2.27;;;;;;;;;;5114004;28;20020;-71
2022/05/13 09:39:18;;;;;;;3.15;2.30;;;;;;;;;;5108908;28;20508;-71
2022/05/13 09:41:45;;;;;;;5.37;2.60;;;;;;;;;;5108721;28;20031;-71
2022/05/13 09:44:23;;;;;;;7.97;2.47;;;;;;;;;;5108368;28;20102;-71
2022/05/13 09:47:07;;;;;;;4.83;2.67;;;;;;;;;;5113919;28;20027;-71
2022/05/13 09:49:36;;;;;;;5.60;2.70;;;;;;;;;;5114179;28;20248;-71
2022/05/13 09:52:17;;;;;;;5.30;2.63;;;;;;;;;;5113392;28;20292;-71
2022/05/13 09:54:46;;;;;;;6.90;2.80;;;;;;;;;;5113413;28;20024;-71
2022/05/13 09:57:32;;;;;;;7.17;2.83;;;;;;;;;;5112002;28;20351;-71
2022/05/13 10:00:05;;;;;;;5.60;3.10;;;;;;;;;;5107898;28;20652;-71
2022/05/13 10:02:39;;;;;;;6.27;3.00;;;;;;;;;;5108293;28;20264;-71
2022/05/13 10:05:19;;;;;;;8.10;3.20;;;;;;;;;;5108582;28;20351;-71
2022/05/13 10:07:57;;;;;;;6.53;3.10;;;;;;;;;;5110998;28;20110;-71
2022/05/13 10:16:17;;;;;;;5.50;2.75;;;;;;;;;;5092805;28;20082;-71
2022/05/13 10:18:56;;;;;;;6.13;3.67;;;;;;;;;;5110071;28;20031;-71
2022/05/13 10:21:26;;;;;;;5.33;2.80;;;;;;;;;;5107981;28;20263;-71
2022/05/13 10:24:05;;;;;;;6.57;3.00;;;;;;;;;;5107345;28;20282;-70
2022/05/13 10:26:36;;;;;;;6.30;3.23;;;;;;;;;;5108253;28;20681;-71
2022/05/13 10:29:06;;;;;;;5.73;3.10;;;;;;;;;;5108009;28;20350;-71
2022/05/13 10:31:35;;;;;;;5.83;3.17;;;;;;;;;;5112962;28;20279;-71
2022/05/13 10:34:20;;;;;;;6.40;3.10;;;;;;;;;;5112677;28;20731;-71
2022/05/13 10:36:50;;;;;;;6.07;3.05;;;;;;;;;;5112842;28;20347;-71
2022/05/13 10:39:23;;;;;;;6.37;3.23;;;;;;;;;;5113281;28;20461;-71
2022/05/13 10:41:52;;;;;;;8.27;3.20;;;;;;;;;;5110700;28;20741;-71
2022/05/13 10:44:37;;;;;;;14.90;4.07;;;;;;;;;;5107280;28;20337;-71
2022/05/13 10:47:07;;;;;;;7.65;3.08;;;;;;;;;;5107636;28;20263;-71
2022/05/13 10:49:35;;;;;;;5.30;2.80;;;;;;;;;;5107752;28;20024;-71
2022/05/13 10:52:20;;;;;;;5.77;3.47;;;;;;;;;;5109541;28;20276;-71
2022/05/13 10:54:52;;;;;;;4.28;2.30;;;;;;;;;;5113023;28;20701;-71
2022/05/13 10:57:25;;;;;;;4.97;2.97;;;;;;;;;;5112687;28;20027;-71
2022/05/13 11:00:01;;;;;;;5.07;2.87;;;;;;;;;;5112717;28;20260;-71
2022/05/13 11:02:46;;;;;;;9.03;3.60;;;;;;;;;;5111944;28;20363;-71
2022/05/13 11:05:28;;;;;;;5.88;3.03;;;;;;;;;;5107296;28;20264;-71
2022/05/13 11:08:15;;;;;;;8.37;2.97;;;;;;;;;;5107414;28;20547;-71
2022/05/13 11:10:48;;;;;;;6.53;3.23;;;;;;;;;;5107661;28;20271;-71
2022/05/13 11:13:14;;;;;;;4.80;2.67;;;;;;;;;;5107286;28;20299;-70
2022/05/13 11:15:47;;;;;;;7.53;3.00;;;;;;;;;;5112374;28;20316;-71
2022/05/13 11:18:19;;;;;;;8.80;3.40;;;;;;;;;;5112500;28;20275;-70
2022/05/13 11:20:51;;;;;;;6.07;2.80;;;;;;;;;;5112146;28;20279;-71
2022/05/13 11:23:31;;;;;;;6.77;3.20;;;;;;;;;;5112499;28;20252;-71
2022/05/13 11:26:04;;;;;;;9.03;4.07;;;;;;;;;;5110898;28;20347;-71
2022/05/13 11:28:52;;;;;;;7.97;3.97;;;;;;;;;;5109226;28;20299;-70
2022/05/13 11:31:25;;;;;;;7.50;3.33;;;;;;;;;;5111101;28;20753;-70
2022/05/13 11:33:58;;;;;;;6.87;3.90;;;;;;;;;;5111283;28;20299;-70
2022/05/13 11:36:39;;;;;;;5.60;3.17;;;;;;;;;;5113172;28;20276;-71
2022/05/13 11:39:17;;;;;;;8.10;3.87;;;;;;;;;;5116572;28;20264;-70
2022/05/13 11:42:07;;;;;;;5.27;3.43;;;;;;;;;;5116138;28;20318;-70
2022/05/13 11:44:52;;;;;;;6.93;3.67;;;;;;;;;;5115909;28;20296;-71
2022/05/13 11:47:36;;;;;;;7.55;3.80;;;;;;;;;;5116187;28;20268;-71
2022/05/13 11:50:04;;;;;;;8.52;3.80;;;;;;;;;;5110918;28;20031;-71
2022/05/13 11:52:37;;;;;;;10.63;3.90;;;;;;;;;;5110576;28;20118;-70
2022/05/13 11:55:22;;;;;;;7.43;3.60;;;;;;;;;;5110814;28;20274;-71
2022/05/13 11:57:50;;;;;;;7.10;4.30;;;;;;;;;;5111382;28;20298;-71
2022/05/13 12:00:24;;;;;;;8.33;3.90;;;;;;;;;;5115768;28;20024;-71
2022/05/13 12:03:09;;;;;;;7.32;4.15;;;;;;;;;;5116101;28;20322;-71
2022/05/13 12:05:39;;;;;;;11.95;4.60;;;;;;;;;;5115949;28;20410;-71
2022/05/13 12:08:15;;;;;;;12.37;4.60;;;;;;;;;;5115937;28;20028;-71
2022/05/13 12:11:08;;;;;;;8.90;4.40;;;;;;;;;;5112782;28;20674;-71
2022/05/13 12:13:53;;;;;;;18.90;4.53;;;;;;;;;;5071928;28;20323;-71
2022/05/13 12:16:26;;;;;;;8.13;3.92;;;;;;;;;;5110147;28;20572;-71
2022/05/13 12:18:55;;;;;;;14.80;6.73;;;;;;;;;;5110318;28;20465;-70
2022/05/13 12:21:42;;;;;;;14.27;6.47;;;;;;;;;;5113536;28;20264;-70
2022/05/13 12:24:09;;;;;;;12.10;5.60;;;;;;;;;;5115377;28;20795;-70
2022/05/13 12:26:56;;;;;;;14.50;4.80;;;;;;;;;;5115122;28;20271;-71
2022/05/13 12:29:26;;;;;;;12.20;5.30;;;;;;;;;;5115375;28;20661;-70
2022/05/13 12:31:55;;;;;;;9.73;4.80;;;;;;;;;;5114617;28;20766;-71
2022/05/13 12:37:35;;;;;;;10.57;5.10;;;;;;;;;;5110066;28;20279;-71
2022/05/13 12:40:02;;;;;;;10.53;5.67;;;;;;;;;;5109224;28;20264;-70
2022/05/13 12:42:38;;;;;;;13.70;5.30;;;;;;;;;;5110715;28;20271;-71
2022/05/13 12:45:06;;;;;;;12.47;5.70;;;;;;;;;;5115265;28;20337;-70
2022/05/13 12:47:52;;;;;;;20.10;5.40;;;;;;;;;;5115249;28;20313;-70
2022/05/13 12:50:29;;;;;;;17.77;6.17;;;;;;;;;;5100517;28;20595;-70
2022/05/13 12:52:56;;;;;;;17.77;6.37;;;;;;;;;;5115163;28;20620;-71
2022/05/13 12:55:23;;;;;;;10.37;5.20;;;;;;;;;;5112349;28;20260;-71
2022/05/13 12:57:56;;;;;;;8.87;5.27;;;;;;;;;;5109650;28;20279;-70
2022/05/13 13:00:36;;;;;;;10.33;5.10;;;;;;;;;;5109492;28;20272;-71
2022/05/13 13:03:06;;;;;;;10.93;5.53;;;;;;;;;;5109677;28;20765;-71
2022/05/13 13:05:34;;;;;;;10.20;4.70;;;;;;;;;;5112644;28;20322;-70
2022/05/13 13:08:22;;;;;;;10.83;5.40;;;;;;;;;;5114303;28;20360;-71
2022/05/13 13:10:55;;;;;;;12.30;4.97;;;;;;;;;;5114336;28;20272;-71
2022/05/13 13:13:30;;;;;;;12.77;4.13;;;;;;;;;;5114188;28;20283;-77
2022/05/13 13:16:01;;;;;;;10.00;4.30;;;;;;;;;;5114798;28;20836;-78
2022/05/13 13:18:30;;;;;;;7.20;3.43;;;;;;;;;;5109486;28;20031;-78
2022/05/13 13:21:00;;;;;;;5.87;3.10;;;;;;;;;;5109271;28;20031;-78
2022/05/13 13:23:30;;;;;;;9.23;3.03;;;;;;;;;;5108981;28;20027;-78
2022/05/13 13:26:00;;;;;;;9.90;3.53;;;;;;;;;;5109042;28;20032;-78
2022/05/13 13:28:32;;;;;;;7.13;3.57;;;;;;;;;;5113536;28;20545;-77
2022/05/13 13:31:04;;;;;;;6.17;3.83;;;;;;;;;;5114403;28;20031;-78
2022/05/13 13:33:33;;;;;;;5.03;3.50;;;;;;;;;;5114024;28;20028;-79
2022/05/13 13:36:14;;;;;;;6.83;3.63;;;;;;;;;;5114362;28;20024;-78
2022/05/13 13:38:41;;;;;;;9.67;4.90;;;;;;;;;;5113255;28;20551;-79
2022/05/13 13:41:08;;;;;;;9.70;4.33;;;;;;;;;;5107710;28;20015;-78
2022/05/13 13:43:35;;;;;;;12.07;4.47;;;;;;;;;;5106735;28;20035;-79
2022/05/13 13:46:05;;;;;;;10.80;5.00;;;;;;;;;;5106968;28;20023;-79
2022/05/13 13:48:49;;;;;;;12.53;5.53;;;;;;;;;;5106770;28;20023;-78
2022/05/13 13:51:24;;;;;;;10.13;4.47;;;;;;;;;;5111136;28;20020;-79
2022/05/13 13:54:00;;;;;;;7.00;4.00;;;;;;;;;;5111471;28;20271;-79
2022/05/13 13:56:27;;;;;;;10.93;4.30;;;;;;;;;;5113518;28;20030;-78
2022/05/13 13:58:57;;;;;;;11.03;4.70;;;;;;;;;;5113317;28;20042;-79
2022/05/13 14:01:25;;;;;;;11.93;5.70;;;;;;;;;;5111803;28;20104;-78
2022/05/13 14:04:24;;;;;;;12.27;5.00;;;;;;;;;;5107909;28;20081;-78
2022/05/13 14:06:52;;;;;;;12.80;4.00;;;;;;;;;;5052737;28;20040;-78
2022/05/13 14:09:27;;;;;;;10.23;5.37;;;;;;;;;;5107687;28;20020;-78
2022/05/13 14:11:53;;;;;;;;;;;;;;;;;;5111367;28;20099;-78
2022/05/13 14:14:21;;;;;;;8.40;4.80;;;;;;;;;;5113239;28;19907;-79
2022/05/13 14:16:53;;;;;;;8.70;4.90;;;;;;;;;;5113241;28;20024;-79
2022/05/13 14:19:22;;;;;;;8.50;4.27;;;;;;;;;;5112892;28;20023;-79
2022/05/13 14:21:50;;;;;;;12.10;3.77;;;;;;;;;;5113285;28;20035;-79
2022/05/13 14:24:29;;;;;;;10.93;4.03;;;;;;;;;;5110084;28;20110;-79
2022/05/13 14:26:59;;;;;;;11.13;5.13;;;;;;;;;;5107289;28;20020;-79
2022/05/13 14:29:27;;;;;;;15.60;5.83;;;;;;;;;;5107594;28;20461;-79
2022/05/13 14:31:55;;;;;;;8.17;4.43;;;;;;;;;;5107796;28;20031;-80
2022/05/13 14:34:22;;;;;;;10.63;5.10;;;;;;;;;;5110950;28;20023;-78
2022/05/13 14:36:58;;;;;;;10.50;4.70;;;;;;;;;;5112762;28;20424;-78
2022/05/13 14:42:17;;;;;;;13.67;4.90;;;;;;;;;;5113066;28;20089;-78
2022/05/13 14:44:46;;;;;;;8.43;4.43;;;;;;;;;;5113019;28;20035;-79
2022/05/13 14:47:17;;;;;;;9.33;5.13;;;;;;;;;;5107550;28;20038;-79
2022/05/13 14:49:47;;;;;;;12.70;5.03;;;;;;;;;;5107431;28;20057;-79
2022/05/13 14:52:24;;;;;;;9.50;4.80;;;;;;;;;;5107249;28;20080;-79
2022/05/13 14:54:51;;;;;;;18.53;5.30;;;;;;;;;;5107499;28;20347;-79
2022/05/13 14:57:18;;;;;;;13.73;4.87;;;;;;;;;;5113066;28;20401;-79
2022/05/13 15:00:18;;;;;;;8.33;4.33;;;;;;;;;;5112408;28;20031;-79
2022/05/13 15:02:54;;;;;;;7.90;3.57;;;;;;;;;;5054845;28;20065;-79
2022/05/13 15:05:21;;;;;;;7.20;4.13;;;;;;;;;;5112787;28;20024;-79
2022/05/13 15:07:47;;;;;;;10.37;4.40;;;;;;;;;;5110940;28;20024;-80
2022/05/13 15:10:16;;;;;;;6.37;3.77;;;;;;;;;;5106582;28;20027;-79
2022/05/13 15:12:43;;;;;;;10.13;4.07;;;;;;;;;;5106969;28;20402;-79
2022/05/13 15:15:11;;;;;;;6.87;3.50;;;;;;;;;;5107442;28;20095;-79
2022/05/13 15:17:41;;;;;;;10.63;3.30;;;;;;;;;;5108245;28;20028;-79
2022/05/13 15:20:08;;;;;;;8.07;3.40;;;;;;;;;;5111872;28;20028;-78
2022/05/13 15:22:34;;;;;;;7.17;3.10;;;;;;;;;;5112381;28;20035;-79
2022/05/13 15:25:01;;;;;;;7.73;4.00;;;;;;;;;;5112241;28;20015;-80
2022/05/13 15:27:30;;;;;;;8.83;3.90;;;;;;;;;;5112455;28;20478;-79
2022/05/13 15:29:57;;;;;;;6.90;3.63;;;;;;;;;;5111284;28;20444;-80
2022/05/13 15:32:25;;;;;;;9.07;3.57;;;;;;;;;;5106759;28;20095;-80
2022/05/13 15:34:51;;;;;;;8.00;3.20;;;;;;;;;;5106988;28;20081;-79